Time;durP1;ratioP1;P1;durP2;ratioP2;P2;SDS_P1;SDS_P2;PMS_P1;PMS_P2;Temp;Humidity;BMP_temperature;BMP_pressure;BME280_temperature;BME280_humidity;BME280_pressure;Samples;Min_cycle;Max_cycle;Signal;HPM_P1;HPM_P2
2023/01/24 00:02:00;;;;;;;;;;;;;;;6.70;78.77;103425.03;7360181;19;19950;-55
2023/01/24 00:04:27;;;;;;;;;;;;;;;6.70;79.19;103422.44;7358647;19;20280;-58
2023/01/24 00:06:54;;;;;;;;;;;;;;;6.71;78.51;103421.50;7361906;19;19956;-60
2023/01/24 00:09:20;;;;;;;;;;;;;;;6.70;78.74;103425.03;7362421;19;19923;-62
2023/01/24 00:11:47;;;;;;;;;;;;;;;6.71;79.47;103420.63;7365362;19;19919;-59
2023/01/24 00:14:14;;;;;;;;;;;;;;;6.78;78.49;103422.09;7328860;19;19918;-59
2023/01/24 00:16:41;;;;;;;;;;;;;;;6.77;78.51;103420.38;7360123;19;19930;-58
2023/01/24 00:19:07;;;;;;;;;;;;;;;6.71;78.96;103421.50;7361601;19;19923;-60
2023/01/24 00:21:34;;;;;;;;;;;;;;;6.69;79.34;103418.09;7360356;19;20195;-59
2023/01/24 00:24:01;;;;;;;;;;;;;;;6.68;79.39;103415.53;7354572;19;19948;-62
2023/01/24 00:26:28;;;;;;;;;;;;;;;6.65;80.13;103413.06;7359395;19;20529;-59
2023/01/24 00:28:54;;;;;;;;;;;;;;;6.61;80.41;103409.69;7358500;19;19964;-59
2023/01/24 00:31:21;;;;;;;;;;;;;;;6.61;80.77;103411.47;7356074;19;19919;-60
2023/01/24 00:33:48;;;;;;;;;;;;;;;6.59;80.86;103408.94;7359033;19;20018;-55
2023/01/24 00:36:15;;;;;;;;;;;;;;;6.60;81.28;103410.66;7361028;19;19919;-61
2023/01/24 00:38:42;;;;;;;;;;;;;;;6.66;80.91;103412.97;7356224;19;20714;-60
2023/01/24 00:41:09;;;;;;;;;;;;;;;6.70;80.65;103408.50;7332999;19;19929;-58
2023/01/24 00:43:36;;;;;;;;;;;;;;;6.75;80.33;103415.25;7356658;19;19922;-61
2023/01/24 00:46:06;;;;;;;;;;;;;;;6.78;80.06;103414.25;7357472;19;19926;-57
2023/01/24 00:48:33;;;;;;;;;;;;;;;6.79;80.11;103414.19;7359838;19;19930;-59
2023/01/24 00:51:00;;;;;;;;;;;;;;;6.79;79.49;103416.81;7357685;19;19918;-58
2023/01/24 00:53:27;;;;;;;;;;;;;;;6.78;79.72;103409.88;7357349;19;19988;-55
2023/01/24 00:55:54;;;;;;;;;;;;;;;6.75;80.63;103419.63;7357504;19;20483;-59
2023/01/24 00:58:21;;;;;;;;;;;;;;;6.75;81.08;103415.25;7352349;19;19923;-59
2023/01/24 01:00:48;;;;;;;;;;;;;;;6.71;80.67;103413.63;7357667;19;19926;-58
2023/01/24 01:03:19;;;;;;;;;;;;;;;6.70;80.86;103414.59;7357851;19;19927;-59
2023/01/24 01:05:45;;;;;;;;;;;;;;;6.70;80.80;103417.19;7359673;19;19982;-58
2023/01/24 01:08:12;;;;;;;;;;;;;;;6.72;80.97;103407.50;7359986;19;19961;-60
2023/01/24 01:10:39;;;;;;;;;;;;;;;6.72;81.00;103409.25;7330389;19;20607;-59
2023/01/24 01:13:06;;;;;;;;;;;;;;;6.73;81.16;103413.59;7350740;19;19929;-61
2023/01/24 01:15:33;;;;;;;;;;;;;;;6.75;80.98;103411.78;7359464;19;19965;-58
2023/01/24 01:18:00;;;;;;;;;;;;;;;6.77;79.82;103407.31;7362295;19;19921;-59
2023/01/24 01:20:26;;;;;;;;;;;;;;;6.75;80.42;103407.41;7359007;19;19927;-62
2023/01/24 01:22:54;;;;;;;;;;;;;;;6.75;80.89;103409.16;7356445;19;20522;-58
2023/01/24 01:25:21;;;;;;;;;;;;;;;6.76;81.33;103400.38;7351544;19;19947;-58
2023/01/24 01:27:48;;;;;;;;;;;;;;;6.74;81.08;103400.44;7357216;19;19929;-59
2023/01/24 01:30:15;;;;;;;;;;;;;;;6.74;80.98;103402.22;7359014;19;19927;-59
2023/01/24 01:32:42;;;;;;;;;;;;;;;6.75;81.60;103402.16;7357236;19;19922;-59
2023/01/24 01:35:09;;;;;;;;;;;;;;;6.76;81.86;103401.22;7360681;19;20471;-59
2023/01/24 01:37:36;;;;;;;;;;;;;;;6.76;81.24;103403.84;7359087;19;19919;-57
2023/01/24 01:40:03;;;;;;;;;;;;;;;6.76;81.21;103398.59;7359462;19;19923;-59
2023/01/24 01:42:45;;;;;;;;;;;;;;;6.78;81.03;103395.94;7358502;19;20165;-57
2023/01/24 01:45:29;;;;;;;;;;;;;;;6.80;80.72;103394.13;7359982;19;19941;-60
2023/01/24 01:47:57;;;;;;;;;;;;;;;6.81;81.24;103388.78;7359139;19;19958;-58
2023/01/24 01:50:28;;;;;;;;;;;;;;;6.84;80.20;103391.31;7358302;19;19922;-60
2023/01/24 01:52:54;;;;;;;;;;;;;;;6.82;80.91;103390.50;7361732;19;19926;-59
2023/01/24 01:55:24;;;;;;;;;;;;;;;6.83;81.23;103399.22;7359815;19;19930;-59
2023/01/24 01:57:52;;;;;;;;;;;;;;;6.83;80.54;103393.97;7360624;19;19960;-59
2023/01/24 02:00:20;;;;;;;;;;;;;;;6.81;81.06;103394.03;7360176;19;19968;-55
2023/01/24 02:02:50;;;;;;;;;;;;;;;6.86;79.99;103399.91;7353853;19;19926;-60
2023/01/24 02:05:19;;;;;;;;;;;;;;;6.85;80.31;103403.47;7359440;19;19927;-60
2023/01/24 02:07:58;;;;;;;;;;;;;;;6.88;79.74;103397.25;7358372;19;19922;-60
2023/01/24 02:11:37;;;;;;;;;;;;;;;6.86;80.10;103404.28;7357851;19;20687;-57
2023/01/24 02:13:13;;;;;;;;;;;;;;;6.81;80.42;103401.88;7358230;19;20392;-60
2023/01/24 02:18:27;;;;;;;;;;;;;;;6.81;80.80;103406.25;7359984;19;20408;-57
2023/01/24 02:20:53;;;;;;;;;;;;;;;6.82;81.08;103408.81;7358944;19;20506;-59
2023/01/24 02:23:39;;;;;;;;;;;;;;;6.81;80.77;103412.34;7355323;19;19915;-60
2023/01/24 02:26:08;;;;;;;;;;;;;;;6.85;80.64;103418.31;7357416;19;19939;-60
2023/01/24 02:28:35;;;;;;;;;;;;;;;6.85;80.37;103411.31;7363695;19;19923;-56
2023/01/24 02:31:03;;;;;;;;;;;;;;;6.87;80.13;103411.22;7365211;19;19923;-61
2023/01/24 02:33:30;;;;;;;;;;;;;;;6.87;80.49;103414.72;7366720;19;19923;-58
2023/01/24 02:36:15;;;;;;;;;;;;;;;6.88;80.87;103415.56;7364157;19;19923;-61
2023/01/24 02:38:44;;;;;;;;;;;;;;;6.91;81.09;103415.41;7363452;19;20547;-60
2023/01/24 02:41:11;;;;;;;;;;;;;;;6.91;81.07;103420.66;7364065;19;19919;-61
2023/01/24 02:43:41;;;;;;;;;;;;;;;6.92;80.93;103411.91;7361825;19;20352;-56
2023/01/24 02:46:07;;;;;;;;;;;;;;;6.92;80.80;103424.97;7363762;19;19930;-60
2023/01/24 02:48:34;;;;;;;;;;;;;;;6.92;80.90;103416.28;7361528;19;19947;-57
2023/01/24 02:53:46;;;;;;;;;;;;;;;6.91;80.12;103420.66;7366255;19;20576;-58
2023/01/24 02:58:59;;;;;;;;;;;;;;;6.92;80.77;103416.28;7362906;19;19947;-57
2023/01/24 03:01:25;;;;;;;;;;;;;;;6.93;80.96;103421.44;7365312;19;19934;-59
2023/01/24 03:03:53;;;;;;;;;;;;;;;6.94;81.16;103425.78;7362886;19;19943;-57
2023/01/24 03:06:20;;;;;;;;;;;;;;;6.93;80.87;103420.59;7365000;19;19962;-61
2023/01/24 03:08:46;;;;;;;;;;;;;;;6.92;81.11;103422.34;7363280;19;19934;-59
2023/01/24 03:11:13;;;;;;;;;;;;;;;6.93;80.77;103420.59;7363624;19;19926;-60
2023/01/24 03:35:53;;;;;;;;;;;;;;;6.87;80.78;103400.78;7363506;19;20849;-59
2023/01/24 03:41:07;;;;;;;;;;;;;;;6.88;81.05;103408.56;7363640;19;21364;-59
2023/01/24 03:43:33;;;;;;;;;;;;;;;6.89;81.32;103404.19;7360594;19;19915;-58
2023/01/24 03:46:00;;;;;;;;;;;;;;;6.88;80.56;103405.94;7364283;19;20011;-58
2023/01/24 03:48:34;;;;;;;;;;;;;;;6.87;80.61;103403.38;7363319;19;20596;-59
2023/01/24 03:53:46;;;;;;;;;;;;;;;6.91;80.13;103407.56;7360527;19;19926;-59
2023/01/24 03:56:12;;;;;;;;;;;;;;;6.89;80.03;103417.28;7359249;19;19922;-60
2023/01/24 03:58:39;;;;;;;;;;;;;;;6.88;80.24;103424.25;7362127;19;19941;-60
2023/01/24 04:01:06;;;;;;;;;;;;;;;6.87;80.81;103416.47;7364204;19;20215;-62
2023/01/24 04:03:33;;;;;;;;;;;;;;;6.85;80.75;103418.31;7360839;19;20187;-56
2023/01/24 04:05:59;;;;;;;;;;;;;;;6.82;81.71;103411.44;7361959;19;20275;-58
2023/01/24 04:08:26;;;;;;;;;;;;;;;6.85;81.59;103411.31;7360634;19;19926;-58
2023/01/24 04:10:54;;;;;;;;;;;;;;;6.86;81.00;103407.75;7362128;19;20552;-59
2023/01/24 04:13:21;;;;;;;;;;;;;;;6.87;80.73;103412.09;7360792;19;19986;-58
2023/01/24 04:15:48;;;;;;;;;;;;;;;6.88;81.04;103411.19;7361516;19;19911;-61
2023/01/24 04:18:14;;;;;;;;;;;;;;;6.92;80.73;103414.50;7362743;19;20361;-62
2023/01/24 04:20:49;;;;;;;;;;;;;;;6.89;80.72;103412.03;7359981;19;20343;-59
2023/01/24 04:23:16;;;;;;;;;;;;;;;6.91;80.10;103410.19;7359857;19;19911;-58
2023/01/24 04:25:48;;;;;;;;;;;;;;;6.88;79.86;103412.94;7358791;19;19923;-58
2023/01/24 04:28:15;;;;;;;;;;;;;;;6.86;80.93;103407.75;7359246;19;19955;-57
2023/01/24 04:30:41;;;;;;;;;;;;;;;6.83;80.69;103405.28;7361816;19;19947;-55
2023/01/24 04:33:11;;;;;;;;;;;;;;;6.82;80.83;103410.56;7360456;19;19959;-56
2023/01/24 04:35:38;;;;;;;;;;;;;;;6.81;80.79;103406.25;7361893;19;19926;-57
2023/01/24 04:38:05;;;;;;;;;;;;;;;6.81;80.56;103406.25;7360744;19;19941;-59
2023/01/24 04:40:31;;;;;;;;;;;;;;;6.82;80.88;103405.34;7360920;19;19943;-55
2023/01/24 04:42:58;;;;;;;;;;;;;;;6.81;80.83;103401.03;7358231;19;20256;-57
2023/01/24 04:45:25;;;;;;;;;;;;;;;6.82;80.89;103405.34;7360516;19;19930;-58
2023/01/24 04:47:53;;;;;;;;;;;;;;;6.84;80.98;103403.53;7361392;19;20842;-58
2023/01/24 04:50:20;;;;;;;;;;;;;;;6.84;81.04;103407.00;7359628;19;19922;-60
2023/01/24 04:52:46;;;;;;;;;;;;;;;6.87;82.23;103401.63;7360567;19;19927;-60
2023/01/24 04:55:13;;;;;;;;;;;;;;;6.90;82.67;103407.66;7359254;19;19922;-57
2023/01/24 04:57:40;;;;;;;;;;;;;;;6.90;81.92;103405.03;7358087;19;20383;-58
2023/01/24 05:00:09;;;;;;;;;;;;;;;6.89;81.77;103401.56;7361142;19;19923;-58
2023/01/24 05:02:37;;;;;;;;;;;;;;;6.86;81.25;103397.31;7359523;19;20614;-58
2023/01/24 05:05:04;;;;;;;;;;;;;;;6.88;80.97;103395.47;7360529;19;19927;-60
2023/01/24 05:07:31;;;;;;;;;;;;;;;6.90;80.65;103394.56;7360237;19;19926;-59
2023/01/24 05:09:58;;;;;;;;;;;;;;;6.90;80.40;103397.19;7361298;19;19922;-57
2023/01/24 05:12:25;;;;;;;;;;;;;;;6.90;81.09;103399.81;7362358;19;19926;-59
2023/01/24 05:14:51;;;;;;;;;;;;;;;6.94;79.90;103394.38;7359467;19;19911;-59
2023/01/24 05:17:18;;;;;;;;;;;;;;;6.94;80.09;103398.75;7362018;19;19926;-62
2023/01/24 05:19:45;;;;;;;;;;;;;;;6.94;80.09;103397.00;7359678;19;19918;-60
2023/01/24 05:22:11;;;;;;;;;;;;;;;6.94;80.47;103401.38;7360423;19;19919;-57
2023/01/24 05:24:38;;;;;;;;;;;;;;;6.95;79.82;103403.94;7359458;19;20200;-56
2023/01/24 05:27:05;;;;;;;;;;;;;;;6.93;80.01;103404.91;7360891;19;19952;-55
2023/01/24 05:29:32;;;;;;;;;;;;;;;6.87;80.41;103401.63;7359445;19;19930;-58
2023/01/24 05:31:58;;;;;;;;;;;;;;;6.88;79.87;103402.47;7360483;19;19919;-57
2023/01/24 05:34:25;;;;;;;;;;;;;;;6.84;79.98;103406.16;7360036;19;19940;-57
2023/01/24 05:36:52;;;;;;;;;;;;;;;6.79;80.68;103402.88;7362331;19;20288;-58
2023/01/24 05:39:18;;;;;;;;;;;;;;;6.84;80.15;103409.63;7358121;19;20497;-58
2023/01/24 05:41:45;;;;;;;;;;;;;;;6.81;80.21;103411.50;7361487;19;19926;-60
2023/01/24 05:44:12;;;;;;;;;;;;;;;6.80;80.47;103409.81;7357277;19;19982;-58
2023/01/24 05:46:39;;;;;;;;;;;;;;;6.80;80.49;103412.44;7362292;19;19986;-59
2023/01/24 05:49:07;;;;;;;;;;;;;;;6.81;81.05;103416.72;7357361;19;19918;-60
2023/01/24 05:51:33;;;;;;;;;;;;;;;6.84;80.64;103421.84;7361689;19;19931;-61
2023/01/24 05:54:00;;;;;;;;;;;;;;;6.87;80.23;103417.31;7359866;19;19918;-59
2023/01/24 05:56:28;;;;;;;;;;;;;;;6.90;80.26;103420.75;7355920;19;19918;-59
2023/01/24 05:58:54;;;;;;;;;;;;;;;6.89;79.81;103422.50;7357147;19;20714;-59
2023/01/24 06:01:22;;;;;;;;;;;;;;;6.87;80.23;103421.69;7360813;19;21600;-61
2023/01/24 06:03:50;;;;;;;;;;;;;;;6.85;80.97;103420.94;7365383;19;20023;-58
2023/01/24 06:06:18;;;;;;;;;;;;;;;6.87;80.12;103425.16;7367283;19;19918;-60
2023/01/24 06:08:45;;;;;;;;;;;;;;;6.87;79.88;103414.72;7364922;19;20647;-53
2023/01/24 06:11:12;;;;;;;;;;;;;;;6.89;81.21;103425.13;7363098;19;19927;-59
2023/01/24 06:13:39;;;;;;;;;;;;;;;6.93;79.86;103418.84;7365512;19;21823;-60
2023/01/24 06:16:09;;;;;;;;;;;;;;;6.91;79.56;103423.28;7363868;19;20589;-61
2023/01/24 06:18:36;;;;;;;;;;;;;;;6.87;79.78;103419.94;7366733;19;19943;-60
2023/01/24 06:21:21;;;;;;;;;;;;;;;6.85;80.08;103418.31;7364840;19;20542;-58
2023/01/24 06:23:48;;;;;;;;;;;;;;;6.85;80.12;103420.94;7364271;19;20289;-56
2023/01/24 06:26:15;;;;;;;;;;;;;;;6.87;79.65;103419.94;7367137;19;19927;-59
2023/01/24 06:28:41;;;;;;;;;;;;;;;6.85;80.22;103418.31;7364524;19;19915;-58
2023/01/24 06:31:21;;;;;;;;;;;;;;;6.88;80.26;103433.88;7368591;19;19969;-56
2023/01/24 06:33:54;;;;;;;;;;;;;;;6.89;80.28;103414.66;7367368;19;19922;-58
2023/01/24 06:36:37;;;;;;;;;;;;;;;6.92;80.09;103422.34;7366198;19;19922;-57
2023/01/24 06:39:08;;;;;;;;;;;;;;;6.91;80.04;103407.56;7364108;19;19919;-61
2023/01/24 06:41:34;;;;;;;;;;;;;;;6.94;79.74;103411.84;7364597;19;20106;-60
2023/01/24 06:44:01;;;;;;;;;;;;;;;6.95;78.67;103414.41;7360741;19;20278;-58
2023/01/24 06:46:28;;;;;;;;;;;;;;;6.92;78.47;103413.66;7364914;19;19919;-58
2023/01/24 06:48:55;;;;;;;;;;;;;;;6.91;78.43;103418.03;7363714;19;20001;-56
2023/01/24 06:51:21;;;;;;;;;;;;;;;6.89;78.51;103417.28;7364486;19;19918;-61
2023/01/24 06:53:48;;;;;;;;;;;;;;;6.84;79.08;103420.09;7364586;19;20671;-58
2023/01/24 06:56:15;;;;;;;;;;;;;;;6.78;79.37;103427.31;7365772;19;20312;-60
2023/01/24 06:58:41;;;;;;;;;;;;;;;6.73;80.13;103422.28;7364711;19;21097;-60
2023/01/24 07:01:08;;;;;;;;;;;;;;;6.73;80.08;103424.06;7366643;19;19947;-60
2023/01/24 07:03:36;;;;;;;;;;;;;;;6.74;79.80;103431.84;7361831;19;20350;-56
2023/01/24 07:06:03;;;;;;;;;;;;;;;6.71;80.21;103423.25;7364236;19;19927;-60
2023/01/24 07:08:30;;;;;;;;;;;;;;;6.74;79.98;103428.38;7363948;19;19919;-60
2023/01/24 07:10:57;;;;;;;;;;;;;;;6.79;78.97;103429.03;7366201;19;19918;-57
2023/01/24 07:13:24;;;;;;;;;;;;;;;6.78;79.62;103428.19;7362422;19;19926;-58
2023/01/24 07:15:51;;;;;;;;;;;;;;;6.77;79.45;103428.25;7365052;19;20343;-65
2023/01/24 07:18:18;;;;;;;;;;;;;;;6.78;79.02;103433.41;7363652;19;20431;-60
2023/01/24 07:20:49;;;;;;;;;;;;;;;6.82;78.85;103442.84;7360594;19;20455;-56
2023/01/24 07:23:19;;;;;;;;;;;;;;;6.83;79.10;103441.91;7363683;19;19922;-59
2023/01/24 07:25:47;;;;;;;;;;;;;;;6.82;78.61;103434.97;7361986;19;19930;-60
2023/01/24 07:28:14;;;;;;;;;;;;;;;6.82;78.76;103442.84;7365215;19;19927;-60
2023/01/24 07:30:48;;;;;;;;;;;;;;;6.83;78.41;103449.78;7360376;19;19923;-64
2023/01/24 07:33:15;;;;;;;;;;;;;;;6.81;78.26;103458.59;7362938;19;20204;-64
2023/01/24 07:35:42;;;;;;;;;;;;;;;6.77;79.06;103457.88;7362220;19;19919;-64
2023/01/24 07:38:09;;;;;;;;;;;;;;;6.72;78.87;103467.66;7364506;19;21312;-60
2023/01/24 07:40:36;;;;;;;;;;;;;;;6.70;79.29;103473.91;7358822;19;19922;-60
2023/01/24 07:43:03;;;;;;;;;;;;;;;6.70;79.03;103466.91;7361856;19;19927;-63
2023/01/24 07:45:30;;;;;;;;;;;;;;;6.69;79.14;103470.41;7358771;19;19923;-60
2023/01/24 07:47:58;;;;;;;;;;;;;;;6.72;78.49;103474.66;7364223;19;19930;-62
2023/01/24 07:50:25;;;;;;;;;;;;;;;6.71;78.38;103478.19;7363336;19;19923;-61
2023/01/24 07:52:52;;;;;;;;;;;;;;;6.75;78.63;103477.19;7363028;19;20364;-60
2023/01/24 07:55:19;;;;;;;;;;;;;;;6.78;78.48;103483.13;7361756;19;19935;-63
2023/01/24 07:57:47;;;;;;;;;;;;;;;6.83;82.21;103475.94;7359479;19;19943;-58
2023/01/24 08:00:15;;;;;;;;;;;;;;;6.82;80.94;103479.47;7360747;19;19919;-61
2023/01/24 08:02:43;;;;;;;;;;;;;;;6.88;79.36;103478.38;7362269;19;19926;-60
2023/01/24 08:05:10;;;;;;;;;;;;;;;6.87;79.50;103497.59;7364095;19;19930;-62
2023/01/24 08:07:36;;;;;;;;;;;;;;;6.85;78.34;103499.44;7361885;19;19922;-61
2023/01/24 08:10:03;;;;;;;;;;;;;;;6.83;78.92;103501.25;7360997;19;19927;-62
2023/01/24 08:12:30;;;;;;;;;;;;;;;6.86;77.41;103501.09;7358991;19;19930;-67
2023/01/24 08:14:57;;;;;;;;;;;;;;;6.81;78.08;103509.16;7361712;19;21066;-63
2023/01/24 08:17:24;;;;;;;;;;;;;;;6.80;77.98;103517.09;7362575;19;20236;-64
2023/01/24 08:19:50;;;;;;;;;;;;;;;6.77;77.87;103502.34;7361872;19;20376;-61
2023/01/24 08:22:24;;;;;;;;;;;;;;;6.73;78.06;103510.38;7361403;19;20412;-61
2023/01/24 08:24:51;;;;;;;;;;;;;;;6.74;78.02;103517.31;7358279;19;19919;-58
2023/01/24 08:27:18;;;;;;;;;;;;;;;6.75;76.79;103514.66;7360692;19;19922;-63
2023/01/24 08:29:44;;;;;;;;;;;;;;;6.71;77.25;103522.66;7364003;19;19919;-62
2023/01/24 08:32:11;;;;;;;;;;;;;;;6.69;78.24;103525.34;7362601;19;20274;-61
2023/01/24 08:34:38;;;;;;;;;;;;;;;6.68;78.37;103522.78;7360223;19;19919;-62
2023/01/24 08:37:05;;;;;;;;;;;;;;;6.68;77.83;103528.03;7362043;19;20344;-65
2023/01/24 08:39:31;;;;;;;;;;;;;;;6.58;77.32;103522.31;7360271;19;19918;-63
2023/01/24 08:41:58;;;;;;;;;;;;;;;6.61;76.73;103532.63;7361678;19;20301;-61
2023/01/24 08:44:25;;;;;;;;;;;;;;;6.59;76.17;103538.84;7359220;19;19923;-62
2023/01/24 08:46:52;;;;;;;;;;;;;;;6.56;77.07;103539.81;7358642;19;19926;-60
2023/01/24 08:49:18;;;;;;;;;;;;;;;6.49;77.00;103540.97;7359667;19;19927;-61
2023/01/24 08:51:47;;;;;;;;;;;;;;;6.42;76.45;103548.19;7359932;19;19923;-58
2023/01/24 08:54:14;;;;;;;;;;;;;;;6.38;77.22;103554.47;7361284;19;19927;-61
2023/01/24 08:56:41;;;;;;;;;;;;;;;6.32;77.58;103553.81;7360880;19;19922;-63
2023/01/24 08:59:08;;;;;;;;;;;;;;;6.27;77.63;103545.31;7360861;19;20005;-61
2023/01/24 09:01:35;;;;;;;;;;;;;;;6.28;77.94;103550.47;7359498;19;19933;-63
2023/01/24 09:04:02;;;;;;;;;;;;;;;6.33;77.86;103548.53;7360904;19;19938;-62
2023/01/24 09:06:29;;;;;;;;;;;;;;;6.36;78.40;103555.41;7360479;19;20372;-60
2023/01/24 09:08:56;;;;;;;;;;;;;;;6.38;77.60;103551.84;7358900;19;19960;-62
2023/01/24 09:11:22;;;;;;;;;;;;;;;6.32;77.47;103544.22;7358807;19;19930;-63
2023/01/24 09:13:49;;;;;;;;;;;;;;;6.34;77.47;103552.88;7358797;19;20369;-60
2023/01/24 09:16:16;;;;;;;;;;;;;;;6.35;77.99;103553.69;7317846;19;19937;-61
2023/01/24 09:18:43;;;;;;;;;;;;;;;6.30;78.37;103553.88;7355174;19;20294;-61
2023/01/24 09:21:10;;;;;;;;;;;;;;;6.30;78.64;103551.25;7356589;19;19926;-63
2023/01/24 09:23:37;;;;;;;;;;;;;;;6.34;78.71;103555.50;7357073;19;19927;-60
2023/01/24 09:26:04;;;;;;;;;;;;;;;6.34;78.31;103549.41;7358463;19;19930;-63
2023/01/24 09:28:31;;;;;;;;;;;;;;;6.38;77.87;103546.63;7357232;19;19919;-61
2023/01/24 09:30:58;;;;;;;;;;;;;;;6.39;77.81;103547.47;7358329;19;19915;-60
2023/01/24 09:33:25;;;;;;;;;;;;;;;6.43;77.94;103549.06;7358834;19;20356;-60
2023/01/24 09:35:53;;;;;;;;;;;;;;;6.50;77.18;103545.31;7356540;19;19958;-62
2023/01/24 09:38:22;;;;;;;;;;;;;;;6.53;77.18;103550.41;7365391;19;19915;-63
2023/01/24 09:41:07;;;;;;;;;;;;;;;6.50;77.32;103545.31;7365919;19;19923;-61
2023/01/24 09:43:43;;;;;;;;;;;;;;;6.49;77.09;103545.34;7364267;19;20813;-63
2023/01/24 09:46:18;;;;;;;;;;;;;;;6.50;76.89;103539.22;7364386;19;19948;-61
2023/01/24 09:48:47;;;;;;;;;;;;;;;6.47;77.09;103539.31;7365161;19;19962;-62
2023/01/24 09:51:21;;;;;;;;;;;;;;;6.48;76.84;103544.50;7365889;19;20384;-60
2023/01/24 09:53:51;;;;;;;;;;;;;;;6.50;77.05;103539.22;7362685;19;20268;-60
2023/01/24 09:56:26;;;;;;;;;;;;;;;6.50;77.05;103536.59;7364472;19;19938;-61
2023/01/24 09:58:58;;;;;;;;;;;;;;;6.49;77.17;103538.34;7364227;19;19923;-61
2023/01/24 10:01:25;;;;;;;;;;;;;;;6.52;76.59;103538.22;7365414;19;19989;-58
2023/01/24 10:03:51;;;;;;;;;;;;;;;6.56;76.57;103534.56;7365133;19;19929;-59
2023/01/24 10:06:23;;;;;;;;;;;;;;;6.60;76.14;103535.34;7362662;19;19923;-62
2023/01/24 10:09:07;;;;;;;;;;;;;;;6.59;76.65;103536.25;7363270;19;20879;-62
2023/01/24 10:11:48;;;;;;;;;;;;;;;6.58;77.18;103547.59;7361114;19;19957;-59
2023/01/24 10:14:34;;;;;;;;;;;;;;;6.63;76.02;103550.91;7363672;19;20463;-59
2023/01/24 10:17:19;;;;;;;;;;;;;;;6.59;76.29;103542.31;7362279;19;20737;-61
2023/01/24 10:19:52;;;;;;;;;;;;;;;6.52;76.63;103547.84;7361133;19;19935;-62
2023/01/24 10:22:25;;;;;;;;;;;;;;;6.48;76.93;103541.03;7363430;19;20021;-58
2023/01/24 10:24:59;;;;;;;;;;;;;;;6.45;77.77;103549.81;7361791;19;19937;-58
2023/01/24 10:27:36;;;;;;;;;;;;;;;6.41;77.81;103545.63;7363588;19;20485;-60
2023/01/24 10:30:22;;;;;;;;;;;;;;;6.39;78.29;103543.09;7363858;19;20838;-62
2023/01/24 10:32:52;;;;;;;;;;;;;;;6.43;77.24;103552.53;7363590;19;20534;-62
2023/01/24 10:35:26;;;;;;;;;;;;;;;6.39;76.42;103552.69;7361834;19;19958;-61
2023/01/24 10:37:55;;;;;;;;;;;;;;;6.39;76.82;103566.63;7363390;19;20301;-60
2023/01/24 10:40:26;;;;;;;;;;;;;;;6.34;76.74;103554.63;7363670;19;20570;-63
2023/01/24 10:42:53;;;;;;;;;;;;;;;6.31;76.92;103550.34;7361811;19;20184;-59
2023/01/24 10:45:29;;;;;;;;;;;;;;;6.33;77.51;103551.16;7362122;19;19919;-60
2023/01/24 10:47:56;;;;;;;;;;;;;;;6.24;76.60;103541.06;7363265;19;19926;-59
2023/01/24 10:50:25;;;;;;;;;;;;;;;6.30;76.73;103543.41;7348987;19;19922;-63
2023/01/24 10:52:52;;;;;;;;;;;;;;;6.27;76.46;103547.91;7360230;19;19933;-60
2023/01/24 10:55:25;;;;;;;;;;;;;;;6.23;76.46;103539.34;7359414;19;20629;-62
2023/01/24 10:57:52;;;;;;;;;;;;;;;6.22;76.86;103537.63;7340809;19;19923;-61
2023/01/24 11:00:42;;;;;;;;;;;;;;;6.21;76.79;103538.53;7341247;19;19926;-59
2023/01/24 11:03:35;;;;;;;;;;;;;;;6.22;77.42;103535.03;7355824;19;20307;-61
2023/01/24 11:06:02;;;;;;;;;;;;;;;6.32;78.28;103528.53;7361647;19;20937;-62
2023/01/24 11:08:33;;;;;;;;;;;;;;;6.38;77.83;103533.53;7362088;19;19922;-60
2023/01/24 11:11:01;;;;;;;;;;;;;;;6.45;76.82;103527.16;7361364;19;19930;-63
2023/01/24 11:13:28;;;;;;;;;;;;;;;6.51;76.21;103515.59;7358270;19;20231;-62
2023/01/24 11:16:01;;;;;;;;;;;;;;;6.54;76.63;103518.13;7361782;19;19926;-61
2023/01/24 11:18:28;;;;;;;;;;;;;;;6.63;75.80;103522.13;7358162;19;19918;-62
2023/01/24 11:21:27;;;;;;;;;;;;;;;6.65;75.38;103518.56;7358336;19;19926;-63
2023/01/24 11:24:20;;;;;;;;;;;;;;;6.62;75.31;103509.94;7357948;19;20241;-61
2023/01/24 11:30:20;;;;;;;;;;;;;;;6.61;73.81;103516.09;7358227;19;20054;-65
2023/01/24 11:33:05;;;;;;;;;;;;;;;6.48;74.50;103518.34;7356861;19;20340;-61
2023/01/24 11:35:35;;;;;;;;;;;;;;;6.53;74.79;103513.78;7358989;19;19926;-61
2023/01/24 11:38:03;;;;;;;;;;;;;;;6.41;74.54;103515.09;7357564;19;19933;-62
2023/01/24 11:40:31;;;;;;;;;;;;;;;6.41;74.70;103519.47;7356546;19;19930;-61
2023/01/24 11:42:58;;;;;;;;;;;;;;;6.43;74.52;103515.91;7356933;19;20006;-60
2023/01/24 11:45:29;;;;;;;;;;;;;;;6.48;74.87;103507.88;7355395;19;19915;-61
2023/01/24 11:48:05;;;;;;;;;;;;;;;6.58;75.48;103508.38;7358322;19;19934;-60
2023/01/24 11:50:33;;;;;;;;;;;;;;;6.70;75.48;103508.75;7356815;19;19915;-61
2023/01/24 11:53:00;;;;;;;;;;;;;;;6.80;73.87;103510.09;7357365;19;19943;-63
2023/01/24 11:55:30;;;;;;;;;;;;;;;6.91;74.13;103506.19;7354194;19;19926;-58
2023/01/24 11:57:59;;;;;;;;;;;;;;;6.98;73.36;103507.63;7354818;19;20312;-60
2023/01/24 12:00:34;;;;;;;;;;;;;;;7.04;72.77;103492.53;7354992;19;19927;-61
2023/01/24 12:03:06;;;;;;;;;;;;;;;7.12;72.55;103498.28;7357274;19;19918;-63
2023/01/24 12:05:37;;;;;;;;;;;;;;;7.22;71.21;103498.75;7352732;19;20022;-62
2023/01/24 12:08:07;;;;;;;;;;;;;;;7.16;71.45;103485.94;7355741;19;20499;-60
2023/01/24 12:10:35;;;;;;;;;;;;;;;7.12;71.02;103484.34;7356158;19;20782;-61
2023/01/24 12:13:10;;;;;;;;;;;;;;;7.17;71.25;103479.75;7355220;19;19922;-63
2023/01/24 12:15:43;;;;;;;;;;;;;;;7.24;70.39;103479.44;7357600;19;21132;-67
2023/01/24 12:18:12;;;;;;;;;;;;;;;7.26;71.34;103476.78;7356586;19;21620;-61
2023/01/24 12:20:46;;;;;;;;;;;;;;;7.21;71.47;103478.72;7348364;19;20367;-64
2023/01/24 12:23:19;;;;;;;;;;;;;;;7.17;71.24;103472.75;7355293;19;19930;-61
2023/01/24 12:25:49;;;;;;;;;;;;;;;7.16;70.83;103478.91;7341046;19;20743;-62
2023/01/24 12:28:24;;;;;;;;;;;;;;;7.15;70.66;103471.13;7353795;19;20518;-63
2023/01/24 12:30:53;;;;;;;;;;;;;;;7.13;71.37;103465.94;7355325;19;20376;-62
2023/01/24 12:33:23;;;;;;;;;;;;;;;7.09;71.15;103467.00;7357523;19;20019;-62
2023/01/24 12:35:54;;;;;;;;;;;;;;;7.11;72.55;103457.31;7356597;19;19934;-60
2023/01/24 12:38:27;;;;;;;;;;;;;;;7.09;71.55;103463.53;7355950;19;20522;-61
2023/01/24 12:41:00;;;;;;;;;;;;;;;7.02;71.38;103454.22;7354251;19;19958;-63
2023/01/24 12:43:37;;;;;;;;;;;;;;;6.95;71.19;103451.03;7355891;19;21576;-63
2023/01/24 12:46:12;;;;;;;;;;;;;;;6.93;71.36;103447.63;7358712;19;19923;-61
2023/01/24 12:48:48;;;;;;;;;;;;;;;6.91;71.67;103454.66;7324707;19;19921;-61
2023/01/24 12:51:21;;;;;;;;;;;;;;;6.85;71.54;103436.63;7347878;19;20002;-62
2023/01/24 12:53:56;;;;;;;;;;;;;;;6.81;72.06;103445.50;7350457;19;19922;-60
2023/01/24 12:56:31;;;;;;;;;;;;;;;6.75;72.15;103437.94;7354522;19;20270;-60
2023/01/24 12:58:59;;;;;;;;;;;;;;;6.78;72.17;103428.19;7354346;19;19999;-62
2023/01/24 13:01:27;;;;;;;;;;;;;;;6.73;72.52;103429.28;7356147;19;20598;-63
2023/01/24 13:03:55;;;;;;;;;;;;;;;6.71;72.97;103426.72;7355426;19;20018;-63
2023/01/24 13:06:24;;;;;;;;;;;;;;;6.74;73.01;103424.00;7353901;19;19945;-60
2023/01/24 13:08:57;;;;;;;;;;;;;;;6.80;73.20;103420.28;7352813;19;20040;-63
2023/01/24 13:11:28;;;;;;;;;;;;;;;6.80;72.20;103420.28;7349769;19;19949;-61
2023/01/24 13:13:58;;;;;;;;;;;;;;;6.74;72.43;103413.53;7354063;19;19951;-60
2023/01/24 13:16:28;;;;;;;;;;;;;;;6.76;74.15;103414.31;7357138;19;19922;-60
2023/01/24 13:18:56;;;;;;;;;;;;;;;6.77;74.01;103412.53;7355457;19;19918;-60
2023/01/24 13:21:29;;;;;;;;;;;;;;;6.82;73.07;103402.72;7349630;19;19922;-61
2023/01/24 13:23:59;;;;;;;;;;;;;;;6.84;72.91;103409.63;7354627;19;19923;-61
2023/01/24 13:26:32;;;;;;;;;;;;;;;6.91;72.28;103409.38;7354119;19;19922;-60
2023/01/24 13:29:04;;;;;;;;;;;;;;;6.85;71.98;103411.31;7357950;19;20027;-65
2023/01/24 13:31:46;;;;;;;;;;;;;;;6.80;72.73;103415.03;7357148;19;19922;-57
2023/01/24 13:34:15;;;;;;;;;;;;;;;6.75;72.51;103407.41;7359339;19;20348;-60
2023/01/24 13:36:50;;;;;;;;;;;;;;;6.66;72.15;103412.13;7359303;19;19930;-63
2023/01/24 13:39:21;;;;;;;;;;;;;;;6.66;72.42;103417.34;7357394;19;19961;-59